sensor_id;sensor_type;location;lat;lon;timestamp;pressure;altitude;pressure_sealevel;temperature;humidity
36726;BME280;44936;52.086;5.150;2023-04-26T00:00:12;102171.72;;;4.83;100.00
36726;BME280;44936;52.086;5.150;2023-04-26T00:02:38;102144.78;;;4.63;100.00
36726;BME280;44936;52.086;5.150;2023-04-26T00:05:05;102152.06;;;4.70;100.00
36726;BME280;44936;52.086;5.150;2023-04-26T00:07:31;102150.19;;;4.68;100.00
36726;BME280;44936;52.086;5.150;2023-04-26T00:09:57;102137.66;;;4.59;100.00
36726;BME280;44936;52.086;5.150;2023-04-26T00:12:22;102148.66;;;4.53;100.00
36726;BME280;44936;52.086;5.150;2023-04-26T00:14:48;102138.03;;;4.49;100.00
36726;BME280;44936;52.086;5.150;2023-04-26T00:17:13;102136.31;;;4.49;100.00
36726;BME280;44936;52.086;5.150;2023-04-26T00:19:38;102107.69;;;4.30;100.00
36726;BME280;44936;52.086;5.150;2023-04-26T00:22:04;102114.88;;;4.36;100.00
36726;BME280;44936;52.086;5.150;2023-04-26T00:24:30;102137.59;;;4.40;100.00
36726;BME280;44936;52.086;5.150;2023-04-26T00:26:56;102137.53;;;4.38;100.00
36726;BME280;44936;52.086;5.150;2023-04-26T00:29:22;102134.72;;;4.34;100.00
36726;BME280;44936;52.086;5.150;2023-04-26T00:31:47;102129.28;;;4.29;100.00
36726;BME280;44936;52.086;5.150;2023-04-26T00:34:13;102087.59;;;4.26;100.00
36726;BME280;44936;52.086;5.150;2023-04-26T00:36:38;102082.59;;;4.13;100.00
36726;BME280;44936;52.086;5.150;2023-04-26T00:39:03;102085.13;;;4.11;100.00
36726;BME280;44936;52.086;5.150;2023-04-26T00:41:29;102088.84;;;4.16;100.00
36726;BME280;44936;52.086;5.150;2023-04-26T00:43:54;102092.47;;;4.20;100.00
36726;BME280;44936;52.086;5.150;2023-04-26T00:46:20;102084.63;;;4.18;100.00
36726;BME280;44936;52.086;5.150;2023-04-26T00:48:46;102081.88;;;4.15;100.00
36726;BME280;44936;52.086;5.150;2023-04-26T00:51:12;102081.56;;;4.09;100.00
36726;BME280;44936;52.086;5.150;2023-04-26T00:53:38;102088.22;;;4.04;100.00
36726;BME280;44936;52.086;5.150;2023-04-26T00:56:11;102081.31;;;4.05;100.00
36726;BME280;44936;52.086;5.150;2023-04-26T00:58:37;102068.13;;;4.00;100.00
36726;BME280;44936;52.086;5.150;2023-04-26T01:01:03;102065.16;;;3.92;100.00
36726;BME280;44936;52.086;5.150;2023-04-26T01:03:28;102077.47;;;3.96;100.00
36726;BME280;44936;52.086;5.150;2023-04-26T01:05:54;102082.75;;;3.98;100.00
36726;BME280;44936;52.086;5.150;2023-04-26T01:08:20;102051.81;;;3.85;100.00
36726;BME280;44936;52.086;5.150;2023-04-26T01:10:48;102047.34;;;3.82;100.00
36726;BME280;44936;52.086;5.150;2023-04-26T01:13:14;102067.75;;;3.92;100.00
36726;BME280;44936;52.086;5.150;2023-04-26T01:15:44;102061.69;;;3.92;100.00
36726;BME280;44936;52.086;5.150;2023-04-26T01:18:10;102066.72;;;3.89;100.00
36726;BME280;44936;52.086;5.150;2023-04-26T01:20:36;102073.44;;;3.85;100.00
36726;BME280;44936;52.086;5.150;2023-04-26T01:23:02;102084.91;;;3.89;100.00
36726;BME280;44936;52.086;5.150;2023-04-26T01:25:27;102059.13;;;3.76;100.00
36726;BME280;44936;52.086;5.150;2023-04-26T01:27:53;102086.34;;;3.84;100.00
36726;BME280;44936;52.086;5.150;2023-04-26T01:30:18;102072.19;;;3.77;100.00
36726;BME280;44936;52.086;5.150;2023-04-26T01:32:44;102088.94;;;3.84;100.00
36726;BME280;44936;52.086;5.150;2023-04-26T01:35:10;102091.63;;;3.85;100.00
36726;BME280;44936;52.086;5.150;2023-04-26T01:37:35;102087.16;;;3.83;100.00
36726;BME280;44936;52.086;5.150;2023-04-26T01:40:00;102091.41;;;3.81;100.00
36726;BME280;44936;52.086;5.150;2023-04-26T01:42:26;102093.13;;;3.80;100.00
36726;BME280;44936;52.086;5.150;2023-04-26T01:44:51;102085.91;;;3.75;100.00
36726;BME280;44936;52.086;5.150;2023-04-26T01:47:16;102085.06;;;3.76;100.00
36726;BME280;44936;52.086;5.150;2023-04-26T01:49:42;102072.59;;;3.68;100.00
36726;BME280;44936;52.086;5.150;2023-04-26T01:52:07;102069.03;;;3.66;100.00
36726;BME280;44936;52.086;5.150;2023-04-26T01:54:32;102074.38;;;3.69;100.00
36726;BME280;44936;52.086;5.150;2023-04-26T01:56:58;102077.97;;;3.72;100.00
36726;BME280;44936;52.086;5.150;2023-04-26T01:59:23;102076.00;;;3.67;100.00
36726;BME280;44936;52.086;5.150;2023-04-26T02:01:48;102075.69;;;3.61;100.00
36726;BME280;44936;52.086;5.150;2023-04-26T02:04:14;102080.88;;;3.61;100.00
36726;BME280;44936;52.086;5.150;2023-04-26T02:06:39;102079.09;;;3.60;100.00
36726;BME280;44936;52.086;5.150;2023-04-26T02:09:06;102083.47;;;3.61;100.00
36726;BME280;44936;52.086;5.150;2023-04-26T02:11:34;102081.00;;;3.63;100.00
36726;BME280;44936;52.086;5.150;2023-04-26T02:13:59;102080.00;;;3.61;100.00
36726;BME280;44936;52.086;5.150;2023-04-26T02:16:25;102073.78;;;3.57;100.00
36726;BME280;44936;52.086;5.150;2023-04-26T02:18:51;102075.56;;;3.58;100.00
36726;BME280;44936;52.086;5.150;2023-04-26T02:21:17;102062.44;;;3.55;100.00
36726;BME280;44936;52.086;5.150;2023-04-26T02:23:43;102052.69;;;3.51;100.00
36726;BME280;44936;52.086;5.150;2023-04-26T02:26:09;102056.34;;;3.55;100.00
36726;BME280;44936;52.086;5.150;2023-04-26T02:28:35;102060.41;;;3.50;100.00
36726;BME280;44936;52.086;5.150;2023-04-26T02:31:02;102063.06;;;3.51;100.00
36726;BME280;44936;52.086;5.150;2023-04-26T02:33:27;102060.47;;;3.51;100.00
36726;BME280;44936;52.086;5.150;2023-04-26T02:35:52;102066.47;;;3.50;100.00
36726;BME280;44936;52.086;5.150;2023-04-26T02:38:18;102036.44;;;3.37;100.00
36726;BME280;44936;52.086;5.150;2023-04-26T02:40:43;102046.00;;;3.38;100.00
36726;BME280;44936;52.086;5.150;2023-04-26T02:43:08;102053.94;;;3.41;100.00
36726;BME280;44936;52.086;5.150;2023-04-26T02:45:40;102048.94;;;3.45;100.00
36726;BME280;44936;52.086;5.150;2023-04-26T02:48:06;102057.28;;;3.39;100.00
36726;BME280;44936;52.086;5.150;2023-04-26T02:50:31;102062.38;;;3.37;100.00
36726;BME280;44936;52.086;5.150;2023-04-26T02:52:57;102062.47;;;3.39;100.00
36726;BME280;44936;52.086;5.150;2023-04-26T02:55:22;102067.31;;;3.33;100.00
36726;BME280;44936;52.086;5.150;2023-04-26T02:57:47;102066.56;;;3.35;100.00
36726;BME280;44936;52.086;5.150;2023-04-26T03:00:13;102053.38;;;3.31;100.00
36726;BME280;44936;52.086;5.150;2023-04-26T03:02:38;102049.25;;;3.34;100.00
36726;BME280;44936;52.086;5.150;2023-04-26T03:05:04;102049.03;;;3.30;100.00
36726;BME280;44936;52.086;5.150;2023-04-26T03:07:29;102051.81;;;3.34;100.00
36726;BME280;44936;52.086;5.150;2023-04-26T03:09:55;102030.53;;;3.24;100.00
36726;BME280;44936;52.086;5.150;2023-04-26T03:12:21;102060.34;;;3.32;100.00
36726;BME280;44936;52.086;5.150;2023-04-26T03:14:46;102049.09;;;3.31;100.00
36726;BME280;44936;52.086;5.150;2023-04-26T03:17:12;102061.66;;;3.24;100.00
36726;BME280;44936;52.086;5.150;2023-04-26T03:19:37;102036.00;;;3.12;100.00
36726;BME280;44936;52.086;5.150;2023-04-26T03:22:02;102048.69;;;3.24;100.00
36726;BME280;44936;52.086;5.150;2023-04-26T03:24:28;102048.75;;;3.25;100.00
36726;BME280;44936;52.086;5.150;2023-04-26T03:26:53;102051.28;;;3.24;100.00
36726;BME280;44936;52.086;5.150;2023-04-26T03:29:18;102028.38;;;3.15;100.00
36726;BME280;44936;52.086;5.150;2023-04-26T03:31:44;102042.53;;;3.22;100.00
36726;BME280;44936;52.086;5.150;2023-04-26T03:34:10;102030.31;;;3.19;100.00
36726;BME280;44936;52.086;5.150;2023-04-26T03:36:35;102036.53;;;3.23;100.00
36726;BME280;44936;52.086;5.150;2023-04-26T03:39:01;102039.63;;;3.16;100.00
36726;BME280;44936;52.086;5.150;2023-04-26T03:41:26;102047.25;;;3.12;100.00
36726;BME280;44936;52.086;5.150;2023-04-26T03:43:51;102039.41;;;3.11;100.00
36726;BME280;44936;52.086;5.150;2023-04-26T03:46:17;102039.00;;;3.20;100.00
36726;BME280;44936;52.086;5.150;2023-04-26T03:48:42;102028.63;;;3.20;100.00
36726;BME280;44936;52.086;5.150;2023-04-26T03:51:07;102029.91;;;3.28;100.00
36726;BME280;44936;52.086;5.150;2023-04-26T03:53:33;102026.56;;;3.30;100.00
36726;BME280;44936;52.086;5.150;2023-04-26T03:55:58;102035.31;;;3.32;100.00
36726;BME280;44936;52.086;5.150;2023-04-26T03:58:24;102038.78;;;3.33;100.00
36726;BME280;44936;52.086;5.150;2023-04-26T04:00:50;102034.41;;;3.32;100.00
36726;BME280;44936;52.086;5.150;2023-04-26T04:03:15;102029.25;;;3.32;100.00
36726;BME280;44936;52.086;5.150;2023-04-26T04:05:41;102030.13;;;3.32;100.00
36726;BME280;44936;52.086;5.150;2023-04-26T04:08:06;102027.59;;;3.34;100.00
36726;BME280;44936;52.086;5.150;2023-04-26T04:10:31;102022.41;;;3.34;100.00
36726;BME280;44936;52.086;5.150;2023-04-26T04:12:57;102025.81;;;3.33;100.00
36726;BME280;44936;52.086;5.150;2023-04-26T04:15:22;102020.63;;;3.33;100.00
36726;BME280;44936;52.086;5.150;2023-04-26T04:17:47;102014.34;;;3.28;100.00
36726;BME280;44936;52.086;5.150;2023-04-26T04:20:13;102013.47;;;3.27;100.00
36726;BME280;44936;52.086;5.150;2023-04-26T04:22:38;102010.16;;;3.13;100.00
36726;BME280;44936;52.086;5.150;2023-04-26T04:25:07;102019.34;;;3.25;100.00
36726;BME280;44936;52.086;5.150;2023-04-26T04:27:35;102004.63;;;3.24;100.00
36726;BME280;44936;52.086;5.150;2023-04-26T04:30:03;102006.31;;;3.23;100.00
36726;BME280;44936;52.086;5.150;2023-04-26T04:32:31;102004.47;;;3.21;100.00
36726;BME280;44936;52.086;5.150;2023-04-26T04:34:57;102017.66;;;3.25;100.00
36726;BME280;44936;52.086;5.150;2023-04-26T04:37:23;102004.69;;;3.25;100.00
36726;BME280;44936;52.086;5.150;2023-04-26T04:39:50;101998.63;;;3.25;100.00
36726;BME280;44936;52.086;5.150;2023-04-26T04:42:16;102003.31;;;3.32;100.00
36726;BME280;44936;52.086;5.150;2023-04-26T04:44:42;102005.00;;;3.31;100.00
36726;BME280;44936;52.086;5.150;2023-04-26T04:47:07;101998.25;;;3.35;100.00
36726;BME280;44936;52.086;5.150;2023-04-26T04:49:33;101997.63;;;3.39;100.00
36726;BME280;44936;52.086;5.150;2023-04-26T04:51:58;101990.94;;;3.44;100.00
36726;BME280;44936;52.086;5.150;2023-04-26T04:54:23;102004.22;;;3.50;100.00
36726;BME280;44936;52.086;5.150;2023-04-26T04:56:49;102001.94;;;3.56;100.00
36726;BME280;44936;52.086;5.150;2023-04-26T04:59:15;101999.81;;;3.65;100.00
36726;BME280;44936;52.086;5.150;2023-04-26T05:01:40;101990.69;;;3.74;100.00
36726;BME280;44936;52.086;5.150;2023-04-26T05:04:05;102006.28;;;3.91;100.00
36726;BME280;44936;52.086;5.150;2023-04-26T05:06:31;102005.97;;;4.03;100.00
36726;BME280;44936;52.086;5.150;2023-04-26T05:08:57;102000.41;;;4.13;100.00
36726;BME280;44936;52.086;5.150;2023-04-26T05:11:23;101978.00;;;4.15;100.00
36726;BME280;44936;52.086;5.150;2023-04-26T05:13:48;101980.78;;;4.38;100.00
36726;BME280;44936;52.086;5.150;2023-04-26T05:16:14;101979.28;;;4.43;100.00
36726;BME280;44936;52.086;5.150;2023-04-26T05:18:39;101996.69;;;4.63;100.00
36726;BME280;44936;52.086;5.150;2023-04-26T05:21:04;101989.69;;;4.81;100.00
36726;BME280;44936;52.086;5.150;2023-04-26T05:23:30;101976.16;;;4.89;100.00
36726;BME280;44936;52.086;5.150;2023-04-26T05:25:56;101987.25;;;5.04;100.00
36726;BME280;44936;52.086;5.150;2023-04-26T05:28:21;101966.63;;;5.08;100.00
36726;BME280;44936;52.086;5.150;2023-04-26T05:30:47;101977.53;;;5.21;100.00
36726;BME280;44936;52.086;5.150;2023-04-26T05:33:12;101968.34;;;5.29;100.00
36726;BME280;44936;52.086;5.150;2023-04-26T05:35:38;101968.34;;;5.29;100.00
36726;BME280;44936;52.086;5.150;2023-04-26T05:38:03;101969.50;;;5.35;100.00
36726;BME280;44936;52.086;5.150;2023-04-26T05:40:29;101970.66;;;5.42;100.00
36726;BME280;44936;52.086;5.150;2023-04-26T05:42:55;101969.72;;;5.40;100.00
36726;BME280;44936;52.086;5.150;2023-04-26T05:45:21;101979.03;;;5.35;100.00
36726;BME280;44936;52.086;5.150;2023-04-26T05:47:46;101968.13;;;5.44;100.00
36726;BME280;44936;52.086;5.150;2023-04-26T05:50:12;101984.94;;;5.52;100.00
36726;BME280;44936;52.086;5.150;2023-04-26T05:52:37;101982.47;;;5.55;100.00
36726;BME280;44936;52.086;5.150;2023-04-26T05:55:03;101976.75;;;5.63;100.00
36726;BME280;44936;52.086;5.150;2023-04-26T05:57:29;101988.41;;;5.73;100.00
36726;BME280;44936;52.086;5.150;2023-04-26T05:59:55;101980.13;;;5.61;100.00
36726;BME280;44936;52.086;5.150;2023-04-26T06:02:20;101997.69;;;5.87;100.00
36726;BME280;44936;52.086;5.150;2023-04-26T06:04:45;101991.72;;;5.90;100.00
36726;BME280;44936;52.086;5.150;2023-04-26T06:07:11;102020.91;;;6.02;100.00
36726;BME280;44936;52.086;5.150;2023-04-26T06:09:36;102004.66;;;5.88;100.00
36726;BME280;44936;52.086;5.150;2023-04-26T06:12:02;102028.31;;;6.14;100.00
36726;BME280;44936;52.086;5.150;2023-04-26T06:14:28;102047.03;;;6.26;100.00
36726;BME280;44936;52.086;5.150;2023-04-26T06:16:55;102056.09;;;6.36;100.00
36726;BME280;44936;52.086;5.150;2023-04-26T06:19:20;102049.25;;;6.38;100.00
36726;BME280;44936;52.086;5.150;2023-04-26T06:21:45;102050.34;;;6.44;100.00
36726;BME280;44936;52.086;5.150;2023-04-26T06:24:12;102059.25;;;6.72;100.00
36726;BME280;44936;52.086;5.150;2023-04-26T06:26:38;102086.38;;;6.77;100.00
36726;BME280;44936;52.086;5.150;2023-04-26T06:29:03;102099.53;;;6.80;100.00
36726;BME280;44936;52.086;5.150;2023-04-26T06:31:29;102132.00;;;6.88;100.00
36726;BME280;44936;52.086;5.150;2023-04-26T06:33:54;102182.28;;;6.84;100.00
36726;BME280;44936;52.086;5.150;2023-04-26T06:36:20;102228.22;;;6.80;100.00
36726;BME280;44936;52.086;5.150;2023-04-26T06:38:45;102289.66;;;6.74;100.00
36726;BME280;44936;52.086;5.150;2023-04-26T06:41:10;102349.69;;;6.96;100.00
36726;BME280;44936;52.086;5.150;2023-04-26T06:43:36;102363.22;;;7.07;100.00
36726;BME280;44936;52.086;5.150;2023-04-26T06:46:01;102386.09;;;7.14;100.00
36726;BME280;44936;52.086;5.150;2023-04-26T06:48:26;102389.97;;;7.24;100.00
36726;BME280;44936;52.086;5.150;2023-04-26T06:50:52;102392.97;;;7.33;100.00
36726;BME280;44936;52.086;5.150;2023-04-26T06:53:17;102406.41;;;7.42;100.00
36726;BME280;44936;52.086;5.150;2023-04-26T06:55:43;102426.69;;;7.49;100.00
36726;BME280;44936;52.086;5.150;2023-04-26T06:58:08;102449.31;;;7.70;100.00
36726;BME280;44936;52.086;5.150;2023-04-26T07:00:34;102458.00;;;7.91;100.00
36726;BME280;44936;52.086;5.150;2023-04-26T07:02:59;102470.56;;;8.01;100.00
36726;BME280;44936;52.086;5.150;2023-04-26T07:05:25;102508.19;;;7.84;100.00
36726;BME280;44936;52.086;5.150;2023-04-26T07:07:50;102499.69;;;8.10;100.00
36726;BME280;44936;52.086;5.150;2023-04-26T07:10:16;102475.78;;;8.22;100.00
36726;BME280;44936;52.086;5.150;2023-04-26T07:12:41;102477.25;;;8.38;100.00
36726;BME280;44936;52.086;5.150;2023-04-26T07:15:07;102484.22;;;8.37;100.00
36726;BME280;44936;52.086;5.150;2023-04-26T07:17:33;102493.50;;;8.51;100.00
36726;BME280;44936;52.086;5.150;2023-04-26T07:19:58;102484.34;;;8.64;100.00
36726;BME280;44936;52.086;5.150;2023-04-26T07:22:24;102479.59;;;8.76;100.00
36726;BME280;44936;52.086;5.150;2023-04-26T07:24:49;102460.72;;;8.85;100.00
36726;BME280;44936;52.086;5.150;2023-04-26T07:27:14;102470.16;;;8.82;100.00
36726;BME280;44936;52.086;5.150;2023-04-26T07:29:40;102478.78;;;8.55;100.00
36726;BME280;44936;52.086;5.150;2023-04-26T07:32:05;102477.66;;;8.95;100.00
36726;BME280;44936;52.086;5.150;2023-04-26T07:34:31;102500.78;;;9.08;100.00
36726;BME280;44936;52.086;5.150;2023-04-26T07:36:56;102498.91;;;9.04;100.00
36726;BME280;44936;52.086;5.150;2023-04-26T07:39:22;102511.91;;;9.26;100.00
36726;BME280;44936;52.086;5.150;2023-04-26T07:41:47;102516.94;;;9.20;100.00
36726;BME280;44936;52.086;5.150;2023-04-26T07:44:13;102527.59;;;9.26;100.00
36726;BME280;44936;52.086;5.150;2023-04-26T07:46:38;102528.44;;;9.25;100.00
36726;BME280;44936;52.086;5.150;2023-04-26T07:49:03;102521.53;;;9.27;100.00
36726;BME280;44936;52.086;5.150;2023-04-26T07:51:29;102514.34;;;9.46;100.00
36726;BME280;44936;52.086;5.150;2023-04-26T07:53:54;102512.84;;;9.54;100.00
36726;BME280;44936;52.086;5.150;2023-04-26T07:56:20;102505.13;;;9.57;100.00
36726;BME280;44936;52.086;5.150;2023-04-26T07:58:45;102539.78;;;9.75;100.00
36726;BME280;44936;52.086;5.150;2023-04-26T08:01:11;102551.81;;;9.96;100.00
36726;BME280;44936;52.086;5.150;2023-04-26T08:03:36;102539.72;;;9.99;100.00
36726;BME280;44936;52.086;5.150;2023-04-26T08:06:02;102542.47;;;10.04;100.00
36726;BME280;44936;52.086;5.150;2023-04-26T08:08:28;102531.13;;;10.05;100.00
36726;BME280;44936;52.086;5.150;2023-04-26T08:10:54;102539.34;;;9.88;100.00
36726;BME280;44936;52.086;5.150;2023-04-26T08:13:20;102531.16;;;9.79;100.00
36726;BME280;44936;52.086;5.150;2023-04-26T08:15:46;102561.19;;;9.89;100.00
36726;BME280;44936;52.086;5.150;2023-04-26T08:18:11;102562.44;;;9.73;100.00
36726;BME280;44936;52.086;5.150;2023-04-26T08:20:37;102602.59;;;9.72;100.00
36726;BME280;44936;52.086;5.150;2023-04-26T08:23:03;102560.19;;;9.34;100.00
36726;BME280;44936;52.086;5.150;2023-04-26T08:25:29;102570.53;;;9.30;100.00
36726;BME280;44936;52.086;5.150;2023-04-26T08:27:54;102590.72;;;9.34;100.00
36726;BME280;44936;52.086;5.150;2023-04-26T08:30:20;102584.03;;;9.18;100.00
36726;BME280;44936;52.086;5.150;2023-04-26T08:32:45;102569.88;;;9.12;100.00
36726;BME280;44936;52.086;5.150;2023-04-26T08:35:11;102576.19;;;9.18;100.00
36726;BME280;44936;52.086;5.150;2023-04-26T08:37:37;102571.19;;;9.24;100.00
36726;BME280;44936;52.086;5.150;2023-04-26T08:40:06;102582.31;;;9.43;100.00
36726;BME280;44936;52.086;5.150;2023-04-26T08:42:41;102563.28;;;9.23;100.00
36726;BME280;44936;52.086;5.150;2023-04-26T08:45:10;102561.81;;;9.07;100.00
36726;BME280;44936;52.086;5.150;2023-04-26T08:47:47;102586.09;;;9.27;100.00
36726;BME280;44936;52.086;5.150;2023-04-26T08:50:14;102549.75;;;9.11;100.00
36726;BME280;44936;52.086;5.150;2023-04-26T08:52:41;102575.63;;;9.27;100.00
36726;BME280;44936;52.086;5.150;2023-04-26T08:55:08;102581.88;;;9.30;100.00
36726;BME280;44936;52.086;5.150;2023-04-26T08:57:34;102575.19;;;9.39;100.00
36726;BME280;44936;52.086;5.150;2023-04-26T09:00:04;102587.47;;;9.65;100.00
36726;BME280;44936;52.086;5.150;2023-04-26T09:02:30;102566.72;;;9.71;100.00
36726;BME280;44936;52.086;5.150;2023-04-26T09:04:56;102581.28;;;9.88;100.00
36726;BME280;44936;52.086;5.150;2023-04-26T09:07:53;102551.06;;;9.73;100.00
36726;BME280;44936;52.086;5.150;2023-04-26T09:10:20;102584.00;;;9.91;100.00
36726;BME280;44936;52.086;5.150;2023-04-26T09:12:50;102551.09;;;10.00;100.00
36726;BME280;44936;52.086;5.150;2023-04-26T09:15:16;102553.69;;;10.25;100.00
36726;BME280;44936;52.086;5.150;2023-04-26T09:17:41;102541.78;;;10.36;100.00
36726;BME280;44936;52.086;5.150;2023-04-26T09:22:42;102525.84;;;10.59;100.00
36726;BME280;44936;52.086;5.150;2023-04-26T09:25:07;102546.91;;;10.60;100.00
36726;BME280;44936;52.086;5.150;2023-04-26T09:27:38;102542.00;;;10.72;100.00
36726;BME280;44936;52.086;5.150;2023-04-26T09:30:10;102524.03;;;10.86;100.00
36726;BME280;44936;52.086;5.150;2023-04-26T09:35:28;102597.03;;;11.29;100.00
36726;BME280;44936;52.086;5.150;2023-04-26T09:38:05;102540.59;;;11.47;100.00
36726;BME280;44936;52.086;5.150;2023-04-26T09:40:36;102506.41;;;11.47;100.00
36726;BME280;44936;52.086;5.150;2023-04-26T09:43:10;102520.31;;;11.41;100.00
36726;BME280;44936;52.086;5.150;2023-04-26T09:45:47;102516.31;;;11.22;100.00
36726;BME280;44936;52.086;5.150;2023-04-26T09:48:25;102492.50;;;11.16;100.00
36726;BME280;44936;52.086;5.150;2023-04-26T09:50:52;102556.50;;;11.20;100.00
36726;BME280;44936;52.086;5.150;2023-04-26T09:53:26;102607.16;;;11.16;100.00
36726;BME280;44936;52.086;5.150;2023-04-26T09:55:56;102612.63;;;10.93;100.00
36726;BME280;44936;52.086;5.150;2023-04-26T09:58:22;102613.84;;;10.76;100.00
36726;BME280;44936;52.086;5.150;2023-04-26T10:00:50;102603.69;;;10.58;100.00
36726;BME280;44936;52.086;5.150;2023-04-26T10:03:17;102584.75;;;10.14;100.00
36726;BME280;44936;52.086;5.150;2023-04-26T10:05:43;102583.59;;;10.06;100.00
36726;BME280;44936;52.086;5.150;2023-04-26T10:08:09;102585.06;;;9.71;100.00
36726;BME280;44936;52.086;5.150;2023-04-26T10:10:34;102583.06;;;9.39;100.00
36726;BME280;44936;52.086;5.150;2023-04-26T10:13:02;102598.88;;;9.42;100.00
36726;BME280;44936;52.086;5.150;2023-04-26T10:15:30;102613.19;;;9.27;100.00
36726;BME280;44936;52.086;5.150;2023-04-26T10:17:55;102604.50;;;9.04;100.00
36726;BME280;44936;52.086;5.150;2023-04-26T10:20:22;102606.38;;;9.08;100.00
36726;BME280;44936;52.086;5.150;2023-04-26T10:22:52;102593.00;;;9.01;100.00
36726;BME280;44936;52.086;5.150;2023-04-26T10:25:19;102579.41;;;8.87;100.00
36726;BME280;44936;52.086;5.150;2023-04-26T10:30:13;102560.84;;;8.57;100.00
36726;BME280;44936;52.086;5.150;2023-04-26T10:35:26;102586.63;;;8.70;100.00
36726;BME280;44936;52.086;5.150;2023-04-26T10:40:39;102557.25;;;8.77;100.00
36726;BME280;44936;52.086;5.150;2023-04-26T10:45:37;102532.47;;;8.68;100.00
36726;BME280;44936;52.086;5.150;2023-04-26T10:48:14;102550.69;;;8.89;100.00
36726;BME280;44936;52.086;5.150;2023-04-26T10:53:33;102531.16;;;9.03;100.00
36726;BME280;44936;52.086;5.150;2023-04-26T10:59:13;102526.63;;;9.23;100.00
36726;BME280;44936;52.086;5.150;2023-04-26T11:01:39;102547.03;;;9.57;100.00
36726;BME280;44936;52.086;5.150;2023-04-26T11:04:09;102529.72;;;9.62;100.00
36726;BME280;44936;52.086;5.150;2023-04-26T11:06:53;102540.34;;;9.92;100.00
36726;BME280;44936;52.086;5.150;2023-04-26T11:09:35;102547.78;;;10.07;100.00
36726;BME280;44936;52.086;5.150;2023-04-26T11:12:14;102550.78;;;10.44;100.00
36726;BME280;44936;52.086;5.150;2023-04-26T11:14:41;102509.38;;;10.63;100.00
36726;BME280;44936;52.086;5.150;2023-04-26T11:17:08;102512.38;;;10.46;100.00
36726;BME280;44936;52.086;5.150;2023-04-26T11:19:34;102526.22;;;10.71;100.00
36726;BME280;44936;52.086;5.150;2023-04-26T11:22:00;102491.16;;;10.69;100.00
36726;BME280;44936;52.086;5.150;2023-04-26T11:24:30;102510.22;;;10.62;100.00
36726;BME280;44936;52.086;5.150;2023-04-26T11:26:56;102485.91;;;10.39;100.00
36726;BME280;44936;52.086;5.150;2023-04-26T11:29:23;102500.16;;;10.47;100.00
36726;BME280;44936;52.086;5.150;2023-04-26T11:31:52;102464.00;;;10.37;100.00
36726;BME280;44936;52.086;5.150;2023-04-26T11:34:22;102469.19;;;10.35;100.00
36726;BME280;44936;52.086;5.150;2023-04-26T11:36:55;102505.66;;;10.56;100.00
36726;BME280;44936;52.086;5.150;2023-04-26T11:39:20;102495.91;;;10.82;100.00
36726;BME280;44936;52.086;5.150;2023-04-26T11:41:46;102507.38;;;11.16;100.00
36726;BME280;44936;52.086;5.150;2023-04-26T11:44:11;102506.53;;;11.50;100.00
36726;BME280;44936;52.086;5.150;2023-04-26T11:46:37;102497.50;;;11.75;100.00
36726;BME280;44936;52.086;5.150;2023-04-26T11:49:02;102469.78;;;11.86;100.00
36726;BME280;44936;52.086;5.150;2023-04-26T11:51:28;102477.44;;;12.14;100.00
36726;BME280;44936;52.086;5.150;2023-04-26T11:53:54;102468.84;;;12.22;100.00
36726;BME280;44936;52.086;5.150;2023-04-26T11:56:20;102474.91;;;12.58;100.00
36726;BME280;44936;52.086;5.150;2023-04-26T11:58:51;102455.66;;;12.62;100.00
36726;BME280;44936;52.086;5.150;2023-04-26T12:01:24;102454.75;;;12.60;100.00
36726;BME280;44936;52.086;5.150;2023-04-26T12:03:51;102415.28;;;12.62;100.00
36726;BME280;44936;52.086;5.150;2023-04-26T12:06:17;102349.28;;;12.51;100.00
36726;BME280;44936;52.086;5.150;2023-04-26T12:08:49;102376.25;;;12.39;100.00
36726;BME280;44936;52.086;5.150;2023-04-26T12:11:16;102339.50;;;12.45;100.00
36726;BME280;44936;52.086;5.150;2023-04-26T12:13:42;102383.88;;;12.27;100.00
36726;BME280;44936;52.086;5.150;2023-04-26T12:16:07;102396.81;;;12.16;100.00
36726;BME280;44936;52.086;5.150;2023-04-26T12:18:33;102424.47;;;12.38;100.00
36726;BME280;44936;52.086;5.150;2023-04-26T12:20:59;102440.16;;;12.34;100.00
36726;BME280;44936;52.086;5.150;2023-04-26T12:23:34;102455.94;;;12.34;100.00
36726;BME280;44936;52.086;5.150;2023-04-26T12:25:59;102435.91;;;12.39;100.00
36726;BME280;44936;52.086;5.150;2023-04-26T12:28:27;102429.09;;;12.50;100.00
36726;BME280;44936;52.086;5.150;2023-04-26T12:30:53;102341.34;;;12.48;100.00
36726;BME280;44936;52.086;5.150;2023-04-26T12:33:18;102422.19;;;12.55;100.00
36726;BME280;44936;52.086;5.150;2023-04-26T12:35:49;102413.69;;;12.70;100.00
36726;BME280;44936;52.086;5.150;2023-04-26T12:38:15;102386.25;;;12.57;100.00
36726;BME280;44936;52.086;5.150;2023-04-26T12:40:41;102437.03;;;12.53;100.00
36726;BME280;44936;52.086;5.150;2023-04-26T12:43:06;102392.75;;;12.31;100.00
36726;BME280;44936;52.086;5.150;2023-04-26T12:45:32;102427.88;;;12.34;100.00
36726;BME280;44936;52.086;5.150;2023-04-26T12:47:57;102382.69;;;12.11;100.00
36726;BME280;44936;52.086;5.150;2023-04-26T12:50:23;102391.66;;;12.21;100.00
36726;BME280;44936;52.086;5.150;2023-04-26T12:52:48;102392.78;;;12.34;100.00
36726;BME280;44936;52.086;5.150;2023-04-26T12:55:15;102417.66;;;12.48;100.00
36726;BME280;44936;52.086;5.150;2023-04-26T12:57:42;102376.97;;;12.31;100.00
36726;BME280;44936;52.086;5.150;2023-04-26T13:00:15;102387.19;;;12.17;100.00
36726;BME280;44936;52.086;5.150;2023-04-26T13:02:43;102350.88;;;12.01;100.00
36726;BME280;44936;52.086;5.150;2023-04-26T13:05:09;102422.16;;;12.11;100.00